Time;durP1;ratioP1;P1;durP2;ratioP2;P2;SDS_P1;SDS_P2;PMS_P1;PMS_P2;Temp;Humidity;BMP_temperature;BMP_pressure;BME280_temperature;BME280_humidity;BME280_pressure;Samples;Min_cycle;Max_cycle;Signal;HPM_P1;HPM_P2
2021/09/16 00:01:19;;;;;;;24.17;17.25;;;;;;;19.74;73.48;99327.22;5137345;27;20052;-56
2021/09/16 00:03:45;;;;;;;22.50;16.92;;;;;;;19.70;73.67;99318.63;5137247;27;20039;-56
2021/09/16 00:06:10;;;;;;;21.38;14.90;;;;;;;19.67;73.81;99310.03;5137285;27;20053;-56
2021/09/16 00:08:36;;;;;;;25.48;17.27;;;;;;;19.65;74.14;99322.53;5136934;27;20109;-56
2021/09/16 00:11:02;;;;;;;22.38;15.57;;;;;;;19.60;74.38;99318.38;5137051;27;20345;-56
2021/09/16 00:13:28;;;;;;;19.60;14.55;;;;;;;19.59;74.41;99319.31;5137197;28;20066;-56
2021/09/16 00:15:54;;;;;;;19.60;15.48;;;;;;;19.57;74.28;99318.59;5137013;27;20433;-56
2021/09/16 00:18:20;;;;;;;20.27;14.63;;;;;;;19.57;74.14;99318.59;5137162;28;20051;-56
2021/09/16 00:20:46;;;;;;;19.58;15.75;;;;;;;19.55;74.47;99312.53;5136811;27;20437;-56
2021/09/16 00:23:12;;;;;;;19.13;15.18;;;;;;;19.56;74.31;99316.03;5136828;28;20067;-56
2021/09/16 00:25:37;;;;;;;19.27;14.95;;;;;;;19.53;74.43;99311.81;5137167;27;20061;-56
2021/09/16 00:28:03;;;;;;;24.05;15.77;;;;;;;19.51;74.67;99310.22;5137079;28;20043;-56
2021/09/16 00:30:29;;;;;;;22.00;16.10;;;;;;;19.48;74.75;99305.09;5136788;28;20044;-56
2021/09/16 00:32:55;;;;;;;18.88;15.70;;;;;;;19.45;74.79;99300.00;5137097;27;20070;-56
2021/09/16 00:35:21;;;;;;;19.33;15.77;;;;;;;19.45;75.05;99300.00;5137039;28;20066;-56
2021/09/16 00:37:47;;;;;;;23.40;16.85;;;;;;;19.44;74.99;99295.66;5136799;27;20356;-56
2021/09/16 00:40:13;;;;;;;22.55;16.02;;;;;;;19.40;75.50;99295.00;5136893;27;20039;-56
2021/09/16 00:42:38;;;;;;;20.15;16.30;;;;;;;19.37;75.70;99292.59;5137274;27;20378;-56
2021/09/16 00:45:05;;;;;;;21.17;17.17;;;;;;;19.31;75.92;99301.81;5137306;27;20035;-56
2021/09/16 00:47:31;;;;;;;24.25;16.80;;;;;;;19.33;75.90;99307.84;5136965;27;20062;-56
2021/09/16 00:49:56;;;;;;;24.35;17.38;;;;;;;19.35;75.94;99302.44;5136952;27;20356;-56
2021/09/16 00:52:23;;;;;;;23.02;17.75;;;;;;;19.34;75.72;99303.41;5136603;27;20463;-56
2021/09/16 00:54:48;;;;;;;23.05;17.38;;;;;;;19.31;75.94;99306.28;5135682;28;20046;-56
2021/09/16 00:57:16;;;;;;;27.05;16.80;;;;;;;19.35;75.89;99310.41;5135944;28;20058;-56
2021/09/16 00:59:46;;;;;;;22.38;16.95;;;;;;;19.36;76.08;99309.44;5136484;28;20042;-56
2021/09/16 01:02:11;;;;;;;25.55;18.17;;;;;;;19.35;76.37;99311.25;5135925;28;20058;-56
2021/09/16 01:04:37;;;;;;;30.10;19.55;;;;;;;19.35;76.23;99311.25;5136414;28;20047;-55
2021/09/16 01:07:03;;;;;;;30.10;19.80;;;;;;;19.35;76.35;99308.59;5136751;27;20061;-56
2021/09/16 01:09:29;;;;;;;27.63;19.25;;;;;;;19.35;76.27;99311.25;5136518;28;20070;-56
2021/09/16 01:11:55;;;;;;;27.88;17.65;;;;;;;19.36;76.47;99301.50;5135597;28;20039;-56
2021/09/16 01:14:24;;;;;;;26.73;18.33;;;;;;;19.38;76.56;99291.63;5136627;28;20051;-56
2021/09/16 01:16:51;;;;;;;23.75;17.27;;;;;;;19.34;76.69;99301.59;5136662;27;20051;-56
2021/09/16 01:19:17;;;;;;;26.42;19.40;;;;;;;19.35;76.94;99294.50;5136651;27;20054;-56
2021/09/16 01:21:43;;;;;;;22.73;17.23;;;;;;;19.35;76.83;99290.03;5136541;28;20040;-56
2021/09/16 01:24:08;;;;;;;23.85;18.13;;;;;;;19.37;76.70;99289.94;5138793;27;20047;-56
2021/09/16 01:26:34;;;;;;;20.85;16.13;;;;;;;19.37;76.88;99288.13;5140258;27;20051;-55
2021/09/16 01:29:00;;;;;;;19.60;16.17;;;;;;;19.37;76.85;99289.94;5139908;27;20046;-56
2021/09/16 01:31:39;;;;;;;20.52;16.55;;;;;;;19.41;76.77;99279.94;5140165;27;20039;-55
2021/09/16 01:34:06;;;;;;;25.48;16.10;;;;;;;19.34;77.18;99282.19;5140483;27;20039;-56
2021/09/16 01:36:32;;;;;;;21.50;17.77;;;;;;;19.34;77.03;99274.22;5139838;27;20120;-55
2021/09/16 01:38:58;;;;;;;24.60;18.92;;;;;;;19.33;77.06;99272.50;5139966;27;20055;-55
2021/09/16 01:41:24;;;;;;;27.42;18.50;;;;;;;19.31;77.24;99261.16;5140705;27;20051;-56
2021/09/16 01:43:50;;;;;;;26.38;18.65;;;;;;;19.30;76.98;99267.41;5139613;27;20551;-56
2021/09/16 01:46:15;;;;;;;23.15;18.30;;;;;;;19.29;77.35;99263.91;5139843;27;20055;-56
2021/09/16 01:48:41;;;;;;;19.63;16.10;;;;;;;19.31;76.97;99266.47;5139444;27;20043;-56
2021/09/16 01:51:07;;;;;;;22.48;16.70;;;;;;;19.31;77.03;99264.66;5139502;27;20043;-56
2021/09/16 01:53:32;;;;;;;21.15;15.88;;;;;;;19.34;77.08;99268.91;5139729;27;20043;-56
2021/09/16 01:55:58;;;;;;;22.45;18.33;;;;;;;19.30;76.94;99241.72;5139484;27;20372;-56
2021/09/16 01:58:24;;;;;;;18.58;15.13;;;;;;;19.37;77.00;99258.06;5139435;27;20437;-56
2021/09/16 02:00:50;;;;;;;27.35;16.92;;;;;;;19.36;77.13;99262.50;5139782;27;20039;-56
2021/09/16 02:03:16;;;;;;;21.25;17.67;;;;;;;19.38;77.18;99257.94;5138409;27;20039;-56
2021/09/16 02:05:41;;;;;;;26.15;17.80;;;;;;;19.39;77.27;99259.63;5139230;27;20039;-56
2021/09/16 02:08:07;;;;;;;22.65;18.27;;;;;;;19.41;77.40;99251.59;5139131;27;20055;-56
2021/09/16 02:10:33;;;;;;;21.58;16.50;;;;;;;19.41;77.27;99251.59;5138948;27;20083;-56
2021/09/16 02:12:59;;;;;;;19.45;16.27;;;;;;;19.40;77.11;99252.50;5139315;27;20047;-56
2021/09/16 02:15:24;;;;;;;17.90;15.13;;;;;;;19.39;77.21;99248.16;5139044;27;20038;-56
2021/09/16 02:17:51;;;;;;;19.48;15.35;;;;;;;19.39;77.16;99249.03;5139267;27;20043;-56
2021/09/16 02:20:16;;;;;;;20.88;15.35;;;;;;;19.39;77.05;99253.47;5139138;27;20054;-56
2021/09/16 02:22:42;;;;;;;22.55;17.77;;;;;;;19.40;77.13;99255.16;5138856;27;20047;-56
2021/09/16 02:25:08;;;;;;;20.83;15.60;;;;;;;19.39;77.05;99254.31;5139450;27;20324;-56
2021/09/16 02:27:34;;;;;;;18.77;16.73;;;;;;;19.39;77.25;99250.81;5138723;27;20051;-56
2021/09/16 02:30:00;;;;;;;20.48;15.68;;;;;;;19.36;77.26;99246.56;5138765;27;20047;-56
2021/09/16 02:32:26;;;;;;;23.90;16.13;;;;;;;19.36;77.38;99248.38;5138751;27;20448;-56
2021/09/16 02:34:51;;;;;;;20.23;15.32;;;;;;;19.34;77.23;99240.53;5137928;27;20043;-56
2021/09/16 02:37:17;;;;;;;21.85;16.92;;;;;;;19.33;77.21;99238.81;5139134;27;20088;-56
2021/09/16 02:39:43;;;;;;;17.95;15.32;;;;;;;19.33;77.42;99236.16;5138736;27;20058;-56
2021/09/16 02:42:09;;;;;;;18.50;15.82;;;;;;;19.30;77.54;99238.19;5138436;27;20436;-56
2021/09/16 02:44:35;;;;;;;19.75;15.30;;;;;;;19.32;77.51;99236.28;5138705;27;20058;-56
2021/09/16 02:47:01;;;;;;;18.48;15.57;;;;;;;19.32;77.70;99237.13;5138624;27;20047;-56
2021/09/16 02:49:26;;;;;;;20.42;16.60;;;;;;;19.26;77.70;99229.59;5138334;27;20066;-56
2021/09/16 02:51:52;;;;;;;22.00;17.02;;;;;;;19.31;77.66;99248.72;5138284;27;20058;-56
2021/09/16 02:54:18;;;;;;;20.02;15.98;;;;;;;19.32;77.64;99238.94;5138298;27;20087;-56
2021/09/16 02:56:44;;;;;;;18.30;16.33;;;;;;;19.32;77.41;99237.13;5138258;27;20069;-56
2021/09/16 02:59:10;;;;;;;20.40;16.48;;;;;;;19.31;77.81;99237.25;5138159;27;20100;-56
2021/09/16 03:01:36;;;;;;;19.00;15.90;;;;;;;19.31;77.67;99234.59;5138173;27;20050;-56
2021/09/16 03:04:01;;;;;;;18.58;15.00;;;;;;;19.31;77.59;99227.47;5137491;27;20058;-56
2021/09/16 03:06:27;;;;;;;19.25;15.80;;;;;;;19.29;77.70;99240.00;5137133;27;20080;-56
2021/09/16 03:08:53;;;;;;;18.58;15.65;;;;;;;19.29;77.78;99239.16;5137911;27;20063;-56
2021/09/16 03:11:18;;;;;;;21.95;16.17;;;;;;;19.28;77.59;99240.97;5137848;27;20433;-56
2021/09/16 03:13:44;;;;;;;20.52;16.50;;;;;;;19.27;77.64;99235.75;5137866;27;20042;-56
2021/09/16 03:16:10;;;;;;;19.60;16.08;;;;;;;19.25;77.60;99241.19;5138075;27;20407;-56
2021/09/16 03:18:36;;;;;;;21.13;16.63;;;;;;;19.25;77.73;99240.34;5138639;27;20054;-56
2021/09/16 03:21:01;;;;;;;23.73;19.88;;;;;;;19.26;77.76;99242.88;5137957;27;20333;-56
2021/09/16 03:23:27;;;;;;;23.58;17.33;;;;;;;19.26;77.90;99245.53;5137674;27;20067;-56
2021/09/16 03:25:53;;;;;;;23.58;18.17;;;;;;;19.26;77.99;99250.84;5137716;27;20035;-56
2021/09/16 03:28:18;;;;;;;23.83;17.95;;;;;;;19.25;77.94;99245.66;5137832;27;20039;-56
2021/09/16 03:30:44;;;;;;;21.80;17.60;;;;;;;19.26;77.99;99256.16;5137847;27;20057;-56
2021/09/16 03:33:10;;;;;;;24.10;19.90;;;;;;;19.26;77.90;99242.03;5137822;27;20051;-56
2021/09/16 03:35:36;;;;;;;25.38;18.52;;;;;;;19.25;78.05;99243.00;5137761;27;20058;-56
2021/09/16 03:38:02;;;;;;;20.45;16.98;;;;;;;19.26;77.82;99234.06;5137762;27;20051;-56
2021/09/16 03:40:27;;;;;;;25.85;18.15;;;;;;;19.25;78.18;99237.69;5137587;27;20047;-56
2021/09/16 03:42:53;;;;;;;21.88;18.40;;;;;;;19.24;78.08;99251.88;5137394;27;20337;-56
2021/09/16 03:45:19;;;;;;;28.30;20.15;;;;;;;19.23;78.19;99243.09;5136991;27;20066;-55
2021/09/16 03:47:45;;;;;;;21.38;18.00;;;;;;;19.23;78.45;99245.75;5137428;27;20062;-55
2021/09/16 03:50:11;;;;;;;23.30;18.13;;;;;;;19.24;78.25;99243.94;5137845;27;20073;-55
2021/09/16 03:52:37;;;;;;;23.83;18.38;;;;;;;19.23;78.48;99245.75;5137535;27;20059;-55
2021/09/16 03:55:03;;;;;;;21.73;17.60;;;;;;;19.23;78.60;99243.09;5136628;27;20448;-54
2021/09/16 03:57:29;;;;;;;23.02;18.40;;;;;;;19.22;78.69;99243.22;5137500;27;20127;-54
2021/09/16 03:59:55;;;;;;;23.20;18.65;;;;;;;19.21;78.73;99236.22;5137376;27;20058;-54
2021/09/16 04:02:21;;;;;;;26.50;19.88;;;;;;;19.20;79.17;99234.47;5137200;27;20035;-54
2021/09/16 04:04:46;;;;;;;25.73;18.33;;;;;;;19.17;79.24;99234.69;5137117;27;20043;-55
2021/09/16 04:07:12;;;;;;;24.92;18.67;;;;;;;19.18;79.11;99244.38;5137305;27;20100;-55
2021/09/16 04:09:38;;;;;;;25.35;17.50;;;;;;;19.18;79.10;99244.38;5137133;27;20044;-55
2021/09/16 04:12:04;;;;;;;23.08;17.90;;;;;;;19.18;79.48;99239.06;5137283;28;20047;-55
2021/09/16 04:14:30;;;;;;;28.45;21.42;;;;;;;19.19;79.13;99233.66;5137044;28;20046;-55
2021/09/16 04:16:56;;;;;;;22.38;18.33;;;;;;;19.18;79.50;99241.72;5137259;27;20126;-55
2021/09/16 04:19:22;;;;;;;23.23;18.67;;;;;;;19.17;79.44;99243.50;5136962;27;20368;-55
2021/09/16 04:21:48;;;;;;;19.60;17.33;;;;;;;19.18;79.53;99244.38;5137109;28;20051;-55
2021/09/16 04:24:14;;;;;;;19.20;16.63;;;;;;;19.19;79.72;99246.06;5137191;27;20402;-55
2021/09/16 04:26:40;;;;;;;25.60;20.73;;;;;;;19.20;79.53;99245.94;5137113;27;20047;-55
2021/09/16 04:29:06;;;;;;;27.05;20.33;;;;;;;19.22;79.47;99253.81;5137126;27;20062;-54
2021/09/16 04:31:32;;;;;;;23.50;19.15;;;;;;;19.18;79.94;99247.88;5137085;28;20372;-55
2021/09/16 04:33:58;;;;;;;26.63;18.38;;;;;;;19.19;80.13;99254.03;5137027;28;20399;-55
2021/09/16 04:36:24;;;;;;;27.35;19.40;;;;;;;19.17;80.38;99247.97;5136812;28;20382;-55
2021/09/16 04:38:49;;;;;;;24.73;18.90;;;;;;;19.15;80.84;99248.09;5136768;28;20092;-55
2021/09/16 04:41:15;;;;;;;21.10;17.85;;;;;;;19.19;80.48;99254.88;5136867;28;20040;-55
2021/09/16 04:43:41;;;;;;;29.15;21.77;;;;;;;19.21;80.60;99249.47;5136972;28;20062;-55
2021/09/16 04:46:07;;;;;;;24.80;20.60;;;;;;;19.23;80.75;99255.50;5136950;28;20446;-55
2021/09/16 04:48:32;;;;;;;19.85;16.92;;;;;;;19.16;80.68;99241.81;5136925;28;20062;-55
2021/09/16 04:50:58;;;;;;;23.27;17.63;;;;;;;19.26;80.46;99253.50;5136602;28;20337;-55
2021/09/16 04:53:24;;;;;;;17.98;16.10;;;;;;;19.29;80.48;99255.94;5136630;28;20039;-54
2021/09/16 04:55:49;;;;;;;19.23;14.77;;;;;;;19.31;80.49;99255.84;5136908;27;20050;-54
2021/09/16 04:58:15;;;;;;;22.27;17.08;;;;;;;19.30;80.53;99255.00;5137954;27;20046;-53
2021/09/16 05:00:41;;;;;;;21.98;16.17;;;;;;;19.29;80.82;99263.91;5140681;27;20047;-54
2021/09/16 05:03:07;;;;;;;20.33;17.15;;;;;;;19.28;81.08;99262.22;5140422;27;20437;-54
2021/09/16 05:05:33;;;;;;;23.10;18.10;;;;;;;19.29;81.21;99263.06;5140665;27;20057;-54
2021/09/16 05:07:59;;;;;;;22.90;18.80;;;;;;;19.28;81.27;99274.63;5140300;27;20047;-54
2021/09/16 05:10:25;;;;;;;22.98;17.88;;;;;;;19.24;81.49;99259.84;5140233;27;20050;-54
2021/09/16 05:12:51;;;;;;;22.20;19.38;;;;;;;19.30;81.49;99270.06;5139669;27;20070;-54
2021/09/16 05:15:16;;;;;;;21.23;18.40;;;;;;;19.31;81.59;99266.47;5140246;27;20057;-54
2021/09/16 05:17:42;;;;;;;22.90;18.83;;;;;;;19.31;81.61;99264.66;5140210;27;20062;-54
2021/09/16 05:20:09;;;;;;;24.08;19.60;;;;;;;19.35;81.45;99273.25;5140098;27;20036;-54
2021/09/16 05:22:34;;;;;;;21.35;19.08;;;;;;;19.36;81.40;99273.13;5140088;27;20080;-54
2021/09/16 05:25:00;;;;;;;22.90;19.35;;;;;;;19.37;81.33;99266.88;5140692;27;20076;-54
2021/09/16 05:27:26;;;;;;;22.83;19.17;;;;;;;19.39;81.27;99266.75;5140321;27;20047;-54
2021/09/16 05:29:52;;;;;;;21.35;18.63;;;;;;;19.44;81.54;99267.31;5140202;27;20054;-54
2021/09/16 05:32:17;;;;;;;21.83;17.23;;;;;;;19.48;81.48;99276.75;5140773;27;20371;-54
2021/09/16 05:34:43;;;;;;;18.75;16.30;;;;;;;19.49;81.12;99274.94;5139860;27;20051;-54
2021/09/16 05:37:09;;;;;;;20.80;17.10;;;;;;;19.51;81.40;99275.69;5140132;27;20043;-54
2021/09/16 05:39:35;;;;;;;20.10;17.90;;;;;;;19.54;81.28;99275.47;5139177;27;20062;-54
2021/09/16 05:42:01;;;;;;;23.13;20.00;;;;;;;19.57;81.16;99269.94;5139625;27;20047;-54
2021/09/16 05:44:26;;;;;;;19.10;16.77;;;;;;;19.59;81.07;99270.66;5139686;27;20040;-54
2021/09/16 05:46:52;;;;;;;22.83;17.30;;;;;;;19.61;81.16;99272.25;5139916;27;20043;-54
2021/09/16 05:49:18;;;;;;;20.63;15.85;;;;;;;19.64;80.96;99276.53;5139520;27;20042;-54
2021/09/16 05:51:44;;;;;;;19.73;17.00;;;;;;;19.62;80.90;99265.13;5139816;27;20054;-54
2021/09/16 05:54:10;;;;;;;22.10;16.80;;;;;;;19.67;80.76;99279.00;5138914;27;20362;-55
2021/09/16 05:56:36;;;;;;;24.50;15.40;;;;;;;19.69;80.90;99279.72;5139481;27;20054;-54
2021/09/16 05:59:01;;;;;;;23.63;19.15;;;;;;;19.74;81.05;99280.25;5139460;27;20470;-55
2021/09/16 06:01:29;;;;;;;21.23;17.67;;;;;;;19.81;80.92;99289.47;5139545;27;20047;-55
2021/09/16 06:03:55;;;;;;;25.05;19.55;;;;;;;19.87;80.87;99284.69;5139598;27;20047;-55
2021/09/16 06:06:20;;;;;;;19.08;16.98;;;;;;;19.90;80.91;99285.31;5139560;27;20501;-55
2021/09/16 06:08:46;;;;;;;21.88;18.70;;;;;;;19.92;80.76;99280.75;5138810;27;20066;-55
2021/09/16 06:11:12;;;;;;;21.75;17.00;;;;;;;19.94;80.86;99276.16;5139481;27;20387;-55
2021/09/16 06:13:38;;;;;;;20.50;17.45;;;;;;;19.96;80.53;99286.69;5139364;27;20066;-54
2021/09/16 06:16:04;;;;;;;19.02;17.02;;;;;;;19.97;80.60;99286.56;5139336;27;20126;-55
2021/09/16 06:18:30;;;;;;;19.75;16.25;;;;;;;20.04;80.67;99292.28;5138938;27;20058;-55
2021/09/16 06:20:56;;;;;;;18.95;16.00;;;;;;;20.10;80.49;99289.19;5139215;27;20043;-55
2021/09/16 06:23:22;;;;;;;19.20;16.25;;;;;;;20.16;80.35;99282.59;5138885;27;20079;-55
2021/09/16 06:25:47;;;;;;;17.30;15.25;;;;;;;20.21;80.66;99281.28;5139280;27;20075;-55
2021/09/16 06:28:13;;;;;;;17.35;15.45;;;;;;;20.27;80.59;99286.13;5138756;27;20357;-55
2021/09/16 06:30:39;;;;;;;23.20;18.45;;;;;;;20.34;80.28;99293.66;5138725;27;20047;-55
2021/09/16 06:33:05;;;;;;;21.08;17.27;;;;;;;20.39;80.51;99295.03;5139327;27;20039;-55
2021/09/16 06:35:31;;;;;;;18.35;15.77;;;;;;;20.45;80.34;99286.59;5138961;27;20394;-55
2021/09/16 06:37:56;;;;;;;23.25;17.65;;;;;;;20.50;80.41;99300.41;5138854;27;20043;-55
2021/09/16 06:40:22;;;;;;;20.38;15.93;;;;;;;20.56;80.52;99300.94;5138467;27;20043;-55
2021/09/16 06:42:48;;;;;;;18.55;16.52;;;;;;;20.56;80.36;99299.13;5138789;27;20051;-55
2021/09/16 06:45:15;;;;;;;18.10;16.02;;;;;;;20.58;80.16;99291.06;5138761;27;20178;-55
2021/09/16 06:47:41;;;;;;;17.00;15.27;;;;;;;20.60;80.10;99294.44;5138411;27;20479;-55
2021/09/16 06:50:07;;;;;;;17.88;16.00;;;;;;;20.67;80.29;99301.00;5138624;27;20051;-55
2021/09/16 06:52:33;;;;;;;19.73;15.55;;;;;;;20.70;79.84;99304.28;5138594;27;20047;-55
2021/09/16 06:54:58;;;;;;;15.57;13.93;;;;;;;20.83;79.90;99301.56;5138182;27;20051;-55
2021/09/16 06:57:24;;;;;;;17.50;15.60;;;;;;;20.91;80.04;99303.63;5138477;27;20043;-55
2021/09/16 06:59:50;;;;;;;16.42;14.55;;;;;;;20.98;79.60;99299.53;5138003;27;20051;-55
2021/09/16 07:02:16;;;;;;;19.95;16.20;;;;;;;21.03;79.54;99305.38;5138358;27;20131;-55
2021/09/16 07:04:41;;;;;;;15.20;13.70;;;;;;;21.17;79.98;99305.16;5138496;27;20456;-55
2021/09/16 07:07:07;;;;;;;21.63;17.30;;;;;;;21.33;79.35;99311.97;5138250;27;20055;-55
2021/09/16 07:09:34;;;;;;;19.33;14.55;;;;;;;21.42;79.05;99312.13;5137811;27;20183;-56
2021/09/16 07:12:00;;;;;;;15.07;13.10;;;;;;;21.46;78.74;99310.09;5138241;27;20043;-56
2021/09/16 07:14:26;;;;;;;17.30;14.70;;;;;;;21.45;77.94;99308.41;5137877;27;20463;-56
2021/09/16 07:16:53;;;;;;;17.27;13.95;;;;;;;21.43;77.58;99310.31;5137841;27;20058;-55
2021/09/16 07:19:19;;;;;;;16.00;13.82;;;;;;;21.44;77.83;99301.34;5137786;27;20448;-55
2021/09/16 07:21:45;;;;;;;16.85;13.63;;;;;;;21.50;77.96;99310.69;5137158;27;20104;-55
2021/09/16 07:24:12;;;;;;;19.13;13.63;;;;;;;21.55;77.80;99311.19;5137917;27;20504;-55
2021/09/16 07:26:38;;;;;;;15.57;12.75;;;;;;;21.59;77.78;99309.97;5137702;27;20046;-56
2021/09/16 07:29:03;;;;;;;12.50;11.30;;;;;;;21.66;77.80;99313.84;5137896;27;20047;-56
2021/09/16 07:31:29;;;;;;;14.05;12.25;;;;;;;21.73;77.68;99314.22;5138386;27;20051;-56
2021/09/16 07:33:55;;;;;;;14.13;12.57;;;;;;;21.77;77.60;99308.50;5137580;27;20429;-56
2021/09/16 07:36:21;;;;;;;13.68;11.40;;;;;;;21.81;77.52;99311.81;5138088;27;20079;-56
2021/09/16 07:38:47;;;;;;;11.98;10.77;;;;;;;21.88;77.78;99323.66;5137725;27;20396;-56
2021/09/16 07:41:14;;;;;;;14.40;12.25;;;;;;;21.90;77.46;99317.25;5136514;27;20051;-56
2021/09/16 07:43:39;;;;;;;12.57;11.23;;;;;;;21.98;76.92;99313.13;5137684;27;20074;-56
2021/09/16 07:46:05;;;;;;;13.20;10.70;;;;;;;22.10;77.63;99315.66;5137645;27;20349;-56
2021/09/16 07:48:31;;;;;;;13.40;10.82;;;;;;;22.28;77.66;99316.00;5137528;27;20111;-56
2021/09/16 07:50:57;;;;;;;13.82;11.93;;;;;;;22.50;76.94;99319.59;5137575;27;20441;-56
2021/09/16 07:53:23;;;;;;;13.68;11.27;;;;;;;22.67;76.53;99321.69;5137530;27;20455;-56
2021/09/16 07:55:48;;;;;;;14.18;11.88;;;;;;;22.78;75.51;99324.34;5137501;27;20058;-56
2021/09/16 07:58:14;;;;;;;11.80;10.60;;;;;;;22.80;74.77;99326.88;5136586;27;20177;-56
2021/09/16 08:00:40;;;;;;;10.52;9.30;;;;;;;22.94;74.65;99325.75;5137330;27;20043;-56
2021/09/16 08:03:06;;;;;;;11.85;10.65;;;;;;;22.94;74.05;99334.59;5137053;27;20174;-56
2021/09/16 08:05:32;;;;;;;11.65;10.45;;;;;;;22.97;73.98;99338.84;5119398;28;20047;-56
2021/09/16 08:07:58;;;;;;;10.68;9.10;;;;;;;23.03;74.36;99328.47;5137036;27;20050;-56
2021/09/16 08:10:23;;;;;;;10.52;9.43;;;;;;;23.17;73.58;99339.81;5136845;27;20047;-56
2021/09/16 08:12:50;;;;;;;10.93;9.82;;;;;;;23.23;73.33;99331.28;5137282;27;20174;-56
2021/09/16 08:15:18;;;;;;;10.43;9.10;;;;;;;23.34;73.25;99344.59;5137293;27;20039;-56
2021/09/16 08:17:44;;;;;;;13.82;9.65;;;;;;;23.48;72.83;99348.75;5137219;27;20058;-56
2021/09/16 08:20:11;;;;;;;10.50;9.43;;;;;;;23.60;72.66;99355.72;5137041;27;20126;-56
2021/09/16 08:22:37;;;;;;;9.52;8.52;;;;;;;23.72;72.46;99348.47;5136477;27;20046;-57
2021/09/16 08:25:04;;;;;;;10.13;9.07;;;;;;;23.74;71.71;99355.41;5136053;27;20126;-56
2021/09/16 08:27:32;;;;;;;10.25;8.10;;;;;;;23.73;72.15;99353.72;5135409;27;20042;-57
2021/09/16 08:29:58;;;;;;;8.18;7.38;;;;;;;23.69;71.67;99352.28;5136691;27;20051;-57
2021/09/16 08:32:24;;;;;;;9.73;7.50;;;;;;;23.69;71.61;99348.75;5138172;27;20125;-56
2021/09/16 08:34:49;;;;;;;8.60;7.70;;;;;;;23.57;71.11;99347.97;5139647;27;20043;-56
2021/09/16 08:37:15;;;;;;;9.70;7.10;;;;;;;23.53;71.38;99354.56;5137915;27;20062;-56
2021/09/16 08:39:41;;;;;;;8.23;7.43;;;;;;;23.55;71.83;99353.44;5139185;27;20047;-56
2021/09/16 08:42:07;;;;;;;10.23;7.30;;;;;;;23.62;71.79;99347.56;5139068;27;20055;-56
2021/09/16 08:44:33;;;;;;;8.32;6.03;;;;;;;23.73;72.01;99348.38;5138734;27;20338;-56
2021/09/16 08:46:58;;;;;;;12.20;7.03;;;;;;;23.76;70.96;99350.78;5138132;27;20058;-56
2021/09/16 08:49:24;;;;;;;8.10;6.78;;;;;;;23.81;70.66;99352.19;5138960;27;20421;-56
2021/09/16 08:51:50;;;;;;;8.23;6.60;;;;;;;23.85;70.71;99345.59;5138936;27;20047;-56
2021/09/16 08:54:16;;;;;;;7.75;7.03;;;;;;;23.87;70.42;99357.84;5138670;27;20035;-56
2021/09/16 08:56:43;;;;;;;12.90;7.03;;;;;;;23.98;70.13;99351.56;5138645;27;20035;-56
2021/09/16 08:59:10;;;;;;;9.50;6.70;;;;;;;24.00;70.11;99352.28;5138861;27;20051;-57
2021/09/16 09:01:35;;;;;;;11.60;7.22;;;;;;;24.05;69.94;99351.84;5138715;27;20490;-56
2021/09/16 09:04:01;;;;;;;10.35;7.50;;;;;;;24.12;69.71;99358.38;5138526;27;20035;-57
2021/09/16 09:06:42;;;;;;;12.43;7.45;;;;;;;24.23;68.67;99359.09;5139008;27;20055;-57
2021/09/16 09:09:16;;;;;;;8.98;7.53;;;;;;;24.27;68.77;99346.28;5139614;27;20058;-56
2021/09/16 09:11:55;;;;;;;9.18;7.93;;;;;;;24.36;67.52;99350.84;5140696;27;20096;-57
2021/09/16 09:14:37;;;;;;;8.80;7.90;;;;;;;24.38;67.41;99345.38;5140652;27;20051;-57
2021/09/16 09:17:15;;;;;;;8.63;7.75;;;;;;;24.31;67.45;99352.22;5139468;27;20051;-57
2021/09/16 09:19:41;;;;;;;11.88;8.23;;;;;;;24.30;68.37;99346.03;5140468;27;20073;-56
2021/09/16 09:22:07;;;;;;;13.93;8.00;;;;;;;24.48;68.61;99352.44;5140226;27;20479;-56
2021/09/16 09:24:35;;;;;;;14.63;10.85;;;;;;;24.64;67.97;99338.53;5140348;27;20051;-57
2021/09/16 09:27:01;;;;;;;10.32;8.10;;;;;;;24.80;67.58;99346.00;5140027;27;20047;-57
2021/09/16 09:29:28;;;;;;;11.25;9.05;;;;;;;24.87;67.07;99336.41;5140030;27;20116;-56
2021/09/16 09:31:55;;;;;;;12.55;9.95;;;;;;;24.94;67.07;99340.22;5140190;27;20062;-57
2021/09/16 09:34:28;;;;;;;10.32;8.20;;;;;;;24.97;66.12;99335.56;5139862;27;20114;-57
2021/09/16 09:37:10;;;;;;;12.30;8.80;;;;;;;24.89;66.06;99339.81;5122700;27;20047;-56
2021/09/16 09:39:36;;;;;;;11.27;8.80;;;;;;;24.89;66.56;99336.25;5139802;27;20047;-56
2021/09/16 09:42:28;;;;;;;9.50;7.88;;;;;;;25.09;66.57;99343.31;5139688;27;20035;-57
2021/09/16 09:44:55;;;;;;;12.40;11.18;;;;;;;25.14;65.39;99340.25;5121801;27;20463;-57
2021/09/16 09:47:37;;;;;;;12.07;10.18;;;;;;;25.09;65.31;99343.31;5139895;27;20047;-56
2021/09/16 09:50:05;;;;;;;11.95;8.68;;;;;;;24.94;65.32;99342.91;5139042;27;20050;-56
2021/09/16 09:52:31;;;;;;;14.50;8.25;;;;;;;24.88;65.77;99340.78;5139417;27;20047;-56
2021/09/16 09:54:57;;;;;;;9.23;8.00;;;;;;;24.81;65.81;99347.69;5139726;27;20055;-56
2021/09/16 09:57:23;;;;;;;9.90;8.25;;;;;;;24.75;66.31;99356.28;5138588;27;20345;-56
2021/09/16 10:00:05;;;;;;;10.65;8.52;;;;;;;24.59;65.77;99346.13;5139622;27;20054;-57
2021/09/16 10:02:42;;;;;;;8.00;7.03;;;;;;;24.47;66.47;99355.25;5139685;27;20043;-56
2021/09/16 10:05:28;;;;;;;9.02;6.13;;;;;;;24.32;67.03;99352.09;5138803;27;20072;-57
2021/09/16 10:07:58;;;;;;;6.95;5.20;;;;;;;24.22;67.63;99357.41;5139236;27;20107;-56
2021/09/16 10:10:24;;;;;;;5.95;4.63;;;;;;;24.12;68.05;99353.03;5139107;27;20059;-57
2021/09/16 10:12:52;;;;;;;5.18;4.25;;;;;;;24.02;68.48;99356.50;5138498;27;20130;-57
2021/09/16 10:15:19;;;;;;;5.60;5.10;;;;;;;23.92;68.56;99360.09;5139325;27;20062;-57
2021/09/16 10:17:45;;;;;;;7.18;4.30;;;;;;;23.81;68.74;99358.38;5139031;27;20039;-57
2021/09/16 10:20:13;;;;;;;4.53;4.13;;;;;;;23.70;69.54;99358.47;5138881;27;20040;-56
2021/09/16 10:22:39;;;;;;;5.63;5.13;;;;;;;23.55;70.47;99356.09;5139179;27;20043;-56
2021/09/16 10:25:05;;;;;;;5.85;4.35;;;;;;;23.54;70.70;99364.25;5137997;27;20054;-56
2021/09/16 10:27:35;;;;;;;25.27;5.00;;;;;;;23.56;70.83;99359.63;5139063;27;20115;-56
2021/09/16 10:30:24;;;;;;;6.90;4.93;;;;;;;23.59;73.00;99359.34;5139022;27;20444;-56
2021/09/16 10:32:58;;;;;;;8.20;4.85;;;;;;;23.85;73.30;99350.94;5139305;27;20046;-56
2021/09/16 10:35:24;;;;;;;4.97;4.57;;;;;;;24.02;71.89;99342.31;5139010;27;20050;-56
2021/09/16 10:37:50;;;;;;;4.78;4.38;;;;;;;24.13;71.79;99339.50;5138927;27;20055;-56
2021/09/16 10:40:23;;;;;;;4.22;3.92;;;;;;;24.33;71.10;99337.72;5138802;27;20353;-56
2021/09/16 10:42:59;;;;;;;6.03;4.60;;;;;;;24.40;69.94;99338.88;5138481;27;20138;-56
2021/09/16 10:45:46;;;;;;;3.90;3.50;;;;;;;24.60;70.35;99334.44;5138278;27;20043;-56
2021/09/16 10:48:17;;;;;;;4.97;3.97;;;;;;;24.83;70.70;99332.34;5137716;27;20051;-56
2021/09/16 10:50:46;;;;;;;5.07;4.65;;;;;;;24.91;68.52;99329.78;5138691;27;20084;-56
2021/09/16 10:53:35;;;;;;;4.43;4.03;;;;;;;25.01;66.53;99335.13;5138946;27;20043;-56
2021/09/16 10:56:03;;;;;;;4.93;4.53;;;;;;;25.00;66.40;99337.97;5138618;27;20051;-56
2021/09/16 10:58:28;;;;;;;3.88;3.45;;;;;;;25.04;66.95;99336.69;5138318;27;20039;-56
2021/09/16 11:00:54;;;;;;;4.15;3.35;;;;;;;25.07;67.48;99336.41;5137553;27;20134;-56
2021/09/16 11:03:20;;;;;;;4.13;3.72;;;;;;;25.04;67.33;99328.66;5138646;27;20477;-56
2021/09/16 11:05:48;;;;;;;5.88;2.83;;;;;;;25.14;67.48;99326.84;5138033;27;20055;-56
2021/09/16 11:08:18;;;;;;;4.50;4.10;;;;;;;25.18;66.16;99323.72;5120530;27;20047;-57
2021/09/16 11:10:44;;;;;;;3.15;2.95;;;;;;;25.13;66.39;99333.19;5138313;27;20047;-56
2021/09/16 11:13:31;;;;;;;3.10;2.90;;;;;;;25.03;66.21;99332.34;5137966;27;20050;-56
2021/09/16 11:15:57;;;;;;;5.32;3.60;;;;;;;24.91;67.05;99329.78;5121132;27;20043;-56
2021/09/16 11:18:24;;;;;;;5.85;3.95;;;;;;;24.86;66.64;99339.22;5136806;27;20443;-56
2021/09/16 11:20:58;;;;;;;3.78;3.47;;;;;;;24.77;67.03;99326.69;5137682;27;20402;-56